createdAt,value
2022-09-09T00:02:17.920Z,19.17
2022-09-09T00:04:55.835Z,18.83
2022-09-09T00:07:49.269Z,18.73
2022-09-09T00:10:59.474Z,18.70
2022-09-09T00:13:52.933Z,18.54
2022-09-09T00:16:26.692Z,18.29
2022-09-09T00:19:02.178Z,18.15
2022-09-09T00:22:00.889Z,18.30
2022-09-09T00:24:44.228Z,18.08
2022-09-09T00:27:32.992Z,18.12
2022-09-09T00:30:19.945Z,17.98
2022-09-09T00:32:48.860Z,17.93
2022-09-09T00:35:23.267Z,18.02
2022-09-09T00:37:55.446Z,17.70
2022-09-09T00:40:49.706Z,17.35
2022-09-09T00:43:25.006Z,17.41
2022-09-09T00:45:54.546Z,17.41
2022-09-09T00:48:31.052Z,17.38
2022-09-09T00:51:08.382Z,17.74
2022-09-09T00:54:09.057Z,18.12
2022-09-09T00:56:58.954Z,17.70
2022-09-09T00:59:42.985Z,17.43
2022-09-09T01:02:34.040Z,17.00
2022-09-09T01:05:14.298Z,17.02
2022-09-09T01:07:49.757Z,17.18
2022-09-09T01:10:48.387Z,17.39
2022-09-09T01:13:24.850Z,17.11
2022-09-09T01:15:51.735Z,17.22
2022-09-09T01:18:22.718Z,17.36
2022-09-09T01:21:15.977Z,17.31
2022-09-09T01:23:48.488Z,17.22
2022-09-09T01:26:38.607Z,16.89
2022-09-09T01:29:11.276Z,17.19
2022-09-09T01:31:41.279Z,17.33
2022-09-09T01:34:13.490Z,17.95
2022-09-09T01:37:03.439Z,18.13
2022-09-09T01:39:30.086Z,17.49
2022-09-09T01:41:57.868Z,17.27
2022-09-09T01:44:27.531Z,17.43
2022-09-09T01:46:54.137Z,17.31
2022-09-09T01:49:21.748Z,17.63
2022-09-09T01:51:56.646Z,18.33
2022-09-09T01:54:30.526Z,17.75
2022-09-09T01:57:13.412Z,18.39
2022-09-09T02:00:06.727Z,18.73
2022-09-09T02:02:37.877Z,18.99
2022-09-09T02:05:19.760Z,18.64
2022-09-09T02:07:58.023Z,18.70
2022-09-09T02:10:51.682Z,18.39
2022-09-09T02:13:22.788Z,18.44
2022-09-09T02:16:04.485Z,18.03
2022-09-09T02:18:46.314Z,18.13
2022-09-09T02:21:15.303Z,18.33
2022-09-09T02:23:45.107Z,18.43
2022-09-09T02:26:14.266Z,18.79
2022-09-09T02:28:42.304Z,18.27
2022-09-09T02:31:08.916Z,18.21
2022-09-09T02:33:45.188Z,18.30
2022-09-09T02:36:16.498Z,18.42
2022-09-09T02:38:48.348Z,18.55
2022-09-09T02:41:14.985Z,18.30
2022-09-09T02:43:41.594Z,18.48
2022-09-09T02:46:33.532Z,18.74
2022-09-09T02:49:23.378Z,18.75
2022-09-09T02:52:02.117Z,18.58
2022-09-09T02:54:38.659Z,18.38
2022-09-09T02:57:12.952Z,18.48
2022-09-09T02:59:41.096Z,18.33
2022-09-09T03:02:08.199Z,18.56
2022-09-09T03:04:34.927Z,18.18
2022-09-09T03:07:01.545Z,18.22
2022-09-09T03:09:28.155Z,18.17
2022-09-09T03:11:54.863Z,17.91
2022-09-09T03:14:21.994Z,17.79
2022-09-09T03:16:48.944Z,18.11
2022-09-09T03:19:15.614Z,18.13
2022-09-09T03:21:42.214Z,18.10
2022-09-09T03:24:08.793Z,18.00
2022-09-09T03:26:35.401Z,18.05
2022-09-09T03:29:02.003Z,17.81
2022-09-09T03:31:28.659Z,17.45
2022-09-09T03:33:55.297Z,17.80
2022-09-09T03:36:21.949Z,17.69
2022-09-09T03:38:48.546Z,17.74
2022-09-09T03:41:16.209Z,16.80
2022-09-09T03:43:42.850Z,17.25
2022-09-09T03:46:09.550Z,17.29
2022-09-09T03:48:36.377Z,17.45
2022-09-09T03:51:03.107Z,17.83
2022-09-09T03:53:30.227Z,17.88
2022-09-09T03:55:58.696Z,18.21
2022-09-09T03:58:25.750Z,18.04
2022-09-09T04:00:59.897Z,17.75
2022-09-09T04:03:30.178Z,18.17
2022-09-09T04:05:58.911Z,18.21
2022-09-09T04:08:26.625Z,17.81
2022-09-09T04:10:54.846Z,18.29
2022-09-09T04:13:21.442Z,18.50
2022-09-09T04:15:53.775Z,18.31
2022-09-09T04:18:21.445Z,18.17
2022-09-09T04:20:49.783Z,18.29
2022-09-09T04:23:16.959Z,17.90
2022-09-09T04:25:49.606Z,18.29
2022-09-09T04:28:18.302Z,17.96
2022-09-09T04:30:45.623Z,17.94
2022-09-09T04:33:12.985Z,18.34
2022-09-09T04:35:44.659Z,17.95
2022-09-09T04:38:11.830Z,17.38
2022-09-09T04:40:38.423Z,17.69
2022-09-09T04:43:05.040Z,18.19
2022-09-09T04:45:31.759Z,18.73
2022-09-09T04:47:58.796Z,18.68
2022-09-09T04:50:25.429Z,18.77
2022-09-09T04:52:52.271Z,18.79
2022-09-09T04:55:18.968Z,18.41
2022-09-09T04:57:45.641Z,18.42
2022-09-09T05:00:13.343Z,18.34
2022-09-09T05:02:40.778Z,18.21
2022-09-09T05:05:07.828Z,18.25
2022-09-09T05:07:34.445Z,18.42
2022-09-09T05:10:01.117Z,18.34
2022-09-09T05:12:27.726Z,18.56
2022-09-09T05:14:54.282Z,18.40
2022-09-09T05:17:20.910Z,18.43
2022-09-09T05:19:47.515Z,18.22
2022-09-09T05:22:14.071Z,18.53
2022-09-09T05:24:40.705Z,18.13
2022-09-09T05:27:07.313Z,17.94
2022-09-09T05:29:34.066Z,17.97
2022-09-09T05:32:00.837Z,17.91
2022-09-09T05:34:27.550Z,18.65
2022-09-09T05:36:54.127Z,18.79
2022-09-09T05:39:20.763Z,18.82
2022-09-09T05:41:47.436Z,19.13
2022-09-09T05:44:14.080Z,18.97
2022-09-09T05:46:41.010Z,18.89
2022-09-09T05:49:07.624Z,18.98
2022-09-09T05:51:34.246Z,18.24
2022-09-09T05:54:00.937Z,18.10
2022-09-09T05:56:29.536Z,18.47
2022-09-09T05:58:57.452Z,19.00
2022-09-09T06:01:24.015Z,18.66
2022-09-09T06:03:52.195Z,18.53
2022-09-09T06:06:25.580Z,18.49
2022-09-09T06:08:54.840Z,17.99
2022-09-09T06:11:24.855Z,17.86
2022-09-09T06:13:51.540Z,17.98
2022-09-09T06:16:20.024Z,17.63
2022-09-09T06:18:46.947Z,17.65
2022-09-09T06:21:19.603Z,17.73
2022-09-09T06:23:47.116Z,17.75
2022-09-09T06:26:20.073Z,17.52
2022-09-09T06:28:48.750Z,17.34
2022-09-09T06:31:18.927Z,17.62
2022-09-09T06:33:45.673Z,17.63
2022-09-09T06:36:15.837Z,17.38
2022-09-09T06:38:43.561Z,17.58
2022-09-09T06:41:12.283Z,17.59
2022-09-09T06:43:39.506Z,17.41
2022-09-09T06:46:21.049Z,17.55
2022-09-09T06:48:47.624Z,17.63
2022-09-09T06:51:21.198Z,17.66
2022-09-09T06:53:51.351Z,18.07
2022-09-09T06:56:19.638Z,18.14
2022-09-09T06:58:46.607Z,18.39
2022-09-09T07:01:28.091Z,18.46
2022-09-09T07:03:56.801Z,18.34
2022-09-09T07:06:26.537Z,19.20
2022-09-09T07:08:56.737Z,19.16
2022-09-09T07:11:25.760Z,19.45
2022-09-09T07:13:52.389Z,19.29
2022-09-09T07:16:22.084Z,19.40
2022-09-09T07:18:48.720Z,18.68
2022-09-09T07:21:15.786Z,18.62
2022-09-09T07:23:43.245Z,18.77
2022-09-09T07:26:20.439Z,19.06
2022-09-09T07:28:50.666Z,19.01
2022-09-09T07:31:29.591Z,18.73
2022-09-09T07:33:56.243Z,18.98
2022-09-09T07:36:28.900Z,19.23
2022-09-09T07:39:02.192Z,18.94
2022-09-09T07:41:32.615Z,19.70
2022-09-09T07:43:59.341Z,20.18
2022-09-09T07:46:27.854Z,19.51
2022-09-09T07:48:56.923Z,19.31
2022-09-09T07:51:29.054Z,19.02
2022-09-09T07:54:06.881Z,18.54
2022-09-09T07:56:34.366Z,18.40
2022-09-09T07:59:01.311Z,18.30
2022-09-09T08:01:32.881Z,18.30
2022-09-09T08:04:02.261Z,18.08
2022-09-09T08:06:33.032Z,18.17
2022-09-09T08:09:00.243Z,17.88
2022-09-09T08:11:29.258Z,18.05
2022-09-09T08:14:01.652Z,19.26
2022-09-09T08:16:32.454Z,20.08
2022-09-09T08:19:01.544Z,19.93
2022-09-09T08:21:30.815Z,20.08
2022-09-09T08:24:00.060Z,20.80
2022-09-09T08:26:32.244Z,21.15
2022-09-09T08:29:00.985Z,21.52
2022-09-09T08:31:36.778Z,21.53
2022-09-09T08:34:06.106Z,21.29
2022-09-09T08:36:36.476Z,21.08
2022-09-09T08:39:05.958Z,21.17
2022-09-09T08:41:50.950Z,20.50
2022-09-09T08:44:23.360Z,21.47
2022-09-09T08:47:11.284Z,21.10
2022-09-09T08:49:57.680Z,21.05
2022-09-09T08:52:30.575Z,21.17
2022-09-09T08:55:23.609Z,21.22
2022-09-09T08:57:55.604Z,21.05
2022-09-09T09:00:23.440Z,21.14
2022-09-09T09:03:03.642Z,20.62
2022-09-09T09:05:46.325Z,20.78
2022-09-09T09:08:33.845Z,20.43
2022-09-09T09:11:00.841Z,20.95
2022-09-09T09:13:44.234Z,21.15
2022-09-09T09:16:46.953Z,20.14
2022-09-09T09:19:16.608Z,20.13
2022-09-09T09:21:49.047Z,19.98
2022-09-09T09:24:21.473Z,19.99
2022-09-09T09:26:49.331Z,19.77
2022-09-09T09:29:19.377Z,19.80
2022-09-09T09:31:59.469Z,20.07
2022-09-09T09:34:26.388Z,20.54
2022-09-09T09:37:01.737Z,20.30
2022-09-09T09:42:23.091Z,20.47
2022-09-09T09:44:50.507Z,20.35
2022-09-09T09:47:24.326Z,20.55
2022-09-09T09:49:59.725Z,20.71
2022-09-09T09:52:30.284Z,20.26
2022-09-09T09:55:02.760Z,20.34
2022-09-09T09:57:33.847Z,20.61
2022-09-09T10:00:20.744Z,20.41
2022-09-09T10:02:48.526Z,20.49
2022-09-09T10:05:26.562Z,20.34
2022-09-09T10:08:07.049Z,20.36
2022-09-09T10:10:47.430Z,20.05
2022-09-09T10:13:44.145Z,19.83
2022-09-09T10:16:23.199Z,20.11
2022-09-09T10:19:13.809Z,20.00
2022-09-09T10:21:46.196Z,20.22
2022-09-09T10:24:24.948Z,20.14
2022-09-09T10:27:04.822Z,19.84
2022-09-09T10:29:46.018Z,19.98
2022-09-09T10:32:54.668Z,19.97
2022-09-09T10:35:34.719Z,19.94
2022-09-09T10:38:04.278Z,19.88
2022-09-09T10:40:44.132Z,20.13
2022-09-09T10:43:25.277Z,20.03
2022-09-09T10:46:22.936Z,20.00
2022-09-09T10:49:00.666Z,20.18
2022-09-09T10:52:04.765Z,20.34
2022-09-09T10:54:34.099Z,19.68
2022-09-09T10:57:13.889Z,19.90
2022-09-09T10:59:52.203Z,19.88
2022-09-09T11:02:26.210Z,19.90
2022-09-09T11:05:02.080Z,19.78
2022-09-09T11:07:35.847Z,19.55
2022-09-09T11:10:16.196Z,19.69
2022-09-09T11:12:47.665Z,20.02
2022-09-09T11:15:29.159Z,19.99
2022-09-09T11:18:02.111Z,20.19
2022-09-09T11:20:28.931Z,20.34
2022-09-09T11:22:59.920Z,20.31
2022-09-09T11:25:52.061Z,20.16
2022-09-09T11:28:37.474Z,20.37
2022-09-09T11:31:19.294Z,20.69
2022-09-09T11:33:48.940Z,20.36
2022-09-09T11:36:30.738Z,20.15
2022-09-09T11:39:28.273Z,20.12
2022-09-09T11:42:05.965Z,20.14
2022-09-09T11:44:32.756Z,20.35
2022-09-09T11:46:59.466Z,20.71
2022-09-09T11:49:43.709Z,20.78
2022-09-09T11:52:37.494Z,20.92
2022-09-09T11:55:27.340Z,20.93
2022-09-09T11:58:02.989Z,20.61
2022-09-09T12:01:01.857Z,20.65
2022-09-09T12:03:42.844Z,20.71
2022-09-09T12:06:28.981Z,20.78
2022-09-09T12:09:06.804Z,20.83
2022-09-09T12:11:33.488Z,20.70
2022-09-09T12:14:01.858Z,21.08
2022-09-09T12:16:38.035Z,21.00
2022-09-09T12:19:26.416Z,20.96
2022-09-09T12:22:13.987Z,21.21
2022-09-09T12:24:55.529Z,21.01
2022-09-09T12:27:43.687Z,21.36
2022-09-09T12:30:17.033Z,21.34
2022-09-09T12:32:44.700Z,20.99
2022-09-09T12:35:22.312Z,21.03
2022-09-09T12:38:01.131Z,21.30
2022-09-09T12:40:31.400Z,21.68
2022-09-09T12:42:59.084Z,21.63
2022-09-09T12:45:29.350Z,21.45
2022-09-09T12:48:04.893Z,21.28
2022-09-09T12:50:35.999Z,21.10
2022-09-09T12:53:11.076Z,20.84
2022-09-09T12:55:40.142Z,20.63
2022-09-09T12:58:07.803Z,20.61
2022-09-09T13:00:35.451Z,20.69
2022-09-09T13:03:15.704Z,20.65
2022-09-09T13:05:42.387Z,20.47
2022-09-09T13:08:12.879Z,20.80
2022-09-09T13:10:58.729Z,20.60
2022-09-09T13:13:37.935Z,20.56
2022-09-09T13:16:07.917Z,20.62
2022-09-09T13:18:41.798Z,20.74
2022-09-09T13:21:08.582Z,20.73
2022-09-09T13:23:38.409Z,20.94
2022-09-09T13:26:22.305Z,20.87
2022-09-09T13:28:49.509Z,20.71
2022-09-09T13:31:29.153Z,20.76
2022-09-09T13:33:56.019Z,20.69
2022-09-09T13:36:34.681Z,21.02
2022-09-09T13:39:05.025Z,21.44
2022-09-09T13:41:44.178Z,21.19
2022-09-09T13:44:27.904Z,21.12
2022-09-09T13:47:01.704Z,21.21
2022-09-09T13:49:30.892Z,21.23
2022-09-09T13:52:09.819Z,21.02
2022-09-09T13:54:36.479Z,21.05
2022-09-09T13:57:03.371Z,21.06
2022-09-09T13:59:54.013Z,21.06
2022-09-09T14:02:17.808Z,21.39
2022-09-09T14:04:44.981Z,21.10
2022-09-09T14:07:19.845Z,20.92
2022-09-09T14:09:46.515Z,21.05
2022-09-09T14:12:13.403Z,21.09
2022-09-09T14:14:40.159Z,21.13
2022-09-09T14:17:08.047Z,21.24
2022-09-09T14:19:34.948Z,21.19
2022-09-09T14:22:01.952Z,21.54
2022-09-09T14:24:28.710Z,21.39
2022-09-09T14:26:56.190Z,21.73
2022-09-09T14:29:22.847Z,21.04
2022-09-09T14:31:49.425Z,21.13
2022-09-09T14:34:16.061Z,21.45
2022-09-09T14:36:42.671Z,21.27
2022-09-09T14:39:09.412Z,21.36
2022-09-09T14:41:36.046Z,21.55
2022-09-09T14:44:02.812Z,21.68
2022-09-09T14:46:29.447Z,21.44
2022-09-09T14:48:56.142Z,21.38
2022-09-09T14:51:25.074Z,21.44
2022-09-09T14:53:53.786Z,21.46
2022-09-09T14:56:23.145Z,21.21
2022-09-09T14:58:50.683Z,21.00
2022-09-09T15:01:20.099Z,20.83
2022-09-09T15:03:56.081Z,20.71
2022-09-09T15:06:25.677Z,20.75
2022-09-09T15:08:54.544Z,20.96
2022-09-09T15:11:22.039Z,21.11
2022-09-09T15:13:51.613Z,20.88
2022-09-09T15:16:20.297Z,20.73
2022-09-09T15:18:52.141Z,20.72
2022-09-09T15:21:22.032Z,20.79
2022-09-09T15:23:49.679Z,20.64
2022-09-09T15:26:16.828Z,20.81
2022-09-09T15:28:46.247Z,20.52
2022-09-09T15:31:16.542Z,20.20
2022-09-09T15:33:51.340Z,19.98
2022-09-09T15:36:21.303Z,19.86
2022-09-09T15:38:48.564Z,19.97
2022-09-09T15:41:16.543Z,20.09
2022-09-09T15:43:47.745Z,20.60
2022-09-09T15:46:36.836Z,20.94
2022-09-09T15:49:04.457Z,21.03
2022-09-09T15:51:42.690Z,21.13
2022-09-09T15:54:13.570Z,21.29
2022-09-09T15:56:40.884Z,21.34
2022-09-09T15:59:07.958Z,21.29
2022-09-09T16:01:35.243Z,21.27
2022-09-09T16:04:02.040Z,21.28
2022-09-09T16:06:30.659Z,21.12
2022-09-09T16:08:59.573Z,20.91
2022-09-09T16:11:30.008Z,20.74
2022-09-09T16:13:56.804Z,20.85
2022-09-09T16:16:26.641Z,20.66
2022-09-09T16:18:56.022Z,20.95
2022-09-09T16:21:26.503Z,20.81
2022-09-09T16:23:54.013Z,20.85
2022-09-09T16:26:21.365Z,20.64
2022-09-09T16:28:48.641Z,20.56
2022-09-09T16:31:21.279Z,20.74
2022-09-09T16:33:49.099Z,20.93
2022-09-09T16:36:21.899Z,21.24
2022-09-09T16:38:48.796Z,21.04
2022-09-09T16:41:15.817Z,20.89
2022-09-09T16:43:42.523Z,20.70
2022-09-09T16:46:16.340Z,20.73
2022-09-09T16:48:43.924Z,20.67
2022-09-09T16:51:23.129Z,20.92
2022-09-09T16:53:50.010Z,20.70
2022-09-09T16:56:23.813Z,20.73
2022-09-09T16:58:53.479Z,20.87
2022-09-09T17:01:23.643Z,20.67
2022-09-09T17:04:33.737Z,20.63
2022-09-09T17:07:00.710Z,20.75
2022-09-09T17:09:29.645Z,20.45
2022-09-09T17:11:56.261Z,20.55
2022-09-09T17:14:23.762Z,20.71
2022-09-09T17:16:53.767Z,20.50
2022-09-09T17:19:20.416Z,20.44
2022-09-09T17:22:12.744Z,20.33
2022-09-09T17:24:34.206Z,20.31
2022-09-09T17:27:01.082Z,20.36
2022-09-09T17:29:29.319Z,20.19
2022-09-09T17:31:55.951Z,20.42
2022-09-09T17:34:22.571Z,20.31
2022-09-09T17:36:49.178Z,20.20
2022-09-09T17:39:15.833Z,20.18
2022-09-09T17:41:42.636Z,20.37
2022-09-09T17:44:09.502Z,20.72
2022-09-09T17:46:39.297Z,20.59
2022-09-09T17:49:09.104Z,20.72
2022-09-09T17:51:36.622Z,20.67
2022-09-09T17:54:09.476Z,20.16
2022-09-09T17:56:38.431Z,20.36
2022-09-09T17:59:07.358Z,20.50
2022-09-09T18:01:37.538Z,20.67
2022-09-09T18:04:07.089Z,20.36
2022-09-09T18:06:36.909Z,20.64
2022-09-09T18:09:10.141Z,20.71
2022-09-09T18:11:40.227Z,20.56
2022-09-09T18:14:07.861Z,20.29
2022-09-09T18:16:34.563Z,20.28
2022-09-09T18:19:05.520Z,20.24
2022-09-09T18:21:34.738Z,19.36
2022-09-09T18:24:21.548Z,18.93
2022-09-09T18:26:49.831Z,17.08
2022-09-09T18:29:23.551Z,15.83
2022-09-09T18:31:50.973Z,15.05
2022-09-09T18:34:27.047Z,13.94
2022-09-09T18:36:56.442Z,13.60
2022-09-09T18:39:32.252Z,13.37
2022-09-09T18:42:00.883Z,13.27
2022-09-09T18:44:36.790Z,13.24
2022-09-09T18:47:03.589Z,13.35
2022-09-09T18:49:33.101Z,13.19
2022-09-09T18:52:02.290Z,13.01
2022-09-09T18:54:30.368Z,12.97
2022-09-09T18:56:59.248Z,12.86
2022-09-09T18:59:26.211Z,12.80
2022-09-09T19:01:53.227Z,12.74
2022-09-09T19:04:21.846Z,12.79
2022-09-09T19:06:51.170Z,12.70
2022-09-09T19:09:29.697Z,12.62
2022-09-09T19:14:36.754Z,12.80
2022-09-09T19:17:04.231Z,12.88
2022-09-09T19:19:33.276Z,12.95
2022-09-09T19:22:01.241Z,13.19
2022-09-09T19:24:30.657Z,13.24
2022-09-09T19:29:57.000Z,13.04
2022-09-09T19:33:41.673Z,13.63
2022-09-09T19:36:08.323Z,14.37
2022-09-09T19:42:14.625Z,14.79
2022-09-09T19:44:43.927Z,14.62
2022-09-09T19:50:00.503Z,14.30
2022-09-09T19:55:38.612Z,15.55
2022-09-09T20:02:16.309Z,14.84
2022-09-09T20:04:46.443Z,14.69
2022-09-09T20:07:36.423Z,15.34
2022-09-09T20:10:08.855Z,15.25
2022-09-09T20:12:44.303Z,15.68
2022-09-09T20:18:59.238Z,15.91
2022-09-09T20:22:09.854Z,15.63
2022-09-09T20:27:53.156Z,16.59
2022-09-09T20:30:49.292Z,16.51
2022-09-09T20:33:18.010Z,16.78
2022-09-09T20:35:45.416Z,16.75
2022-09-09T20:42:07.213Z,16.57
2022-09-09T20:45:00.374Z,16.43
2022-09-09T20:47:26.866Z,16.57
2022-09-09T20:50:32.900Z,15.97
2022-09-09T20:52:59.515Z,16.24
2022-09-09T20:55:34.878Z,16.52
2022-09-09T20:58:01.503Z,16.53
2022-09-09T21:00:34.390Z,15.67
2022-09-09T21:03:04.145Z,15.93
2022-09-09T21:05:30.819Z,15.22
2022-09-09T21:07:57.509Z,15.55
2022-09-09T21:10:24.212Z,15.27
2022-09-09T21:16:09.582Z,15.14
2022-09-09T21:18:45.883Z,14.59
2022-09-09T21:21:13.267Z,14.52
2022-09-09T21:23:39.937Z,14.84
2022-09-09T21:26:07.119Z,14.29
2022-09-09T21:28:34.945Z,15.06
2022-09-09T21:31:02.750Z,15.09
2022-09-09T21:33:29.563Z,15.01
2022-09-09T21:36:03.697Z,14.74
2022-09-09T21:38:31.495Z,15.07
2022-09-09T21:41:05.460Z,15.94
2022-09-09T21:43:44.876Z,16.37
2022-09-09T21:46:15.552Z,15.79
2022-09-09T21:48:43.071Z,15.87
2022-09-09T21:51:13.283Z,15.29
2022-09-09T21:53:40.219Z,15.02
2022-09-09T21:56:11.172Z,15.78
2022-09-09T21:58:38.341Z,15.66
2022-09-09T22:01:15.297Z,15.87
2022-09-09T22:03:42.890Z,15.37
2022-09-09T22:06:13.567Z,15.45
2022-09-09T22:08:40.762Z,15.41
2022-09-09T22:11:11.424Z,15.39
2022-09-09T22:13:39.033Z,15.79
2022-09-09T22:16:09.643Z,15.98
2022-09-09T22:18:36.822Z,15.73
2022-09-09T22:21:17.510Z,15.66
2022-09-09T22:23:44.741Z,15.57
2022-09-09T22:26:13.764Z,15.79
2022-09-09T22:28:40.534Z,15.45
2022-09-09T22:34:09.660Z,15.64
2022-09-09T22:36:36.405Z,16.01
2022-09-09T22:39:04.314Z,16.54
2022-09-09T22:41:30.983Z,16.53
2022-09-09T22:43:57.761Z,16.54
2022-09-09T22:46:24.537Z,16.52
2022-09-09T22:48:51.188Z,16.94
2022-09-09T22:51:17.828Z,16.84
2022-09-09T22:53:45.767Z,15.97
2022-09-09T22:56:16.327Z,16.51
2022-09-09T22:58:44.542Z,16.71
2022-09-09T23:01:17.682Z,15.79
2022-09-09T23:03:45.482Z,16.64
2022-09-09T23:06:15.273Z,16.68
2022-09-09T23:08:41.878Z,16.30
2022-09-09T23:11:11.118Z,16.61
2022-09-09T23:13:40.113Z,16.96
2022-09-09T23:16:17.443Z,17.00
2022-09-09T23:18:44.752Z,16.00
2022-09-09T23:21:13.830Z,15.93
2022-09-09T23:23:42.104Z,15.88
2022-09-09T23:26:14.612Z,16.48
2022-09-09T23:28:41.429Z,16.51
2022-09-09T23:31:13.849Z,15.88
2022-09-09T23:33:42.253Z,16.52
2022-09-09T23:36:12.578Z,16.59
2022-09-09T23:38:40.600Z,16.32
2022-09-09T23:41:10.312Z,16.41
2022-09-09T23:43:37.974Z,16.23
2022-09-09T23:46:05.783Z,16.41
2022-09-09T23:48:37.949Z,16.15
2022-09-09T23:51:07.899Z,16.51
2022-09-09T23:53:35.256Z,16.22
2022-09-09T23:56:04.114Z,16.13
2022-09-09T23:58:32.454Z,15.58
